createdAt,value
2022-10-10T00:01:10.906Z,99036.13
2022-10-10T00:03:39.961Z,99038.31
2022-10-10T00:06:09.541Z,99036.75
2022-10-10T00:08:41.698Z,99041.09
2022-10-10T00:11:10.229Z,99029.50
2022-10-10T00:13:43.305Z,99033.50
2022-10-10T00:16:45.879Z,99027.63
2022-10-10T00:19:13.758Z,99027.59
2022-10-10T00:21:41.960Z,99022.19
2022-10-10T00:24:10.432Z,99021.06
2022-10-10T00:26:38.405Z,99020.03
2022-10-10T00:29:07.619Z,99021.34
2022-10-10T00:31:35.493Z,99018.16
2022-10-10T00:34:03.442Z,99017.84
2022-10-10T00:36:49.373Z,99012.44
2022-10-10T00:39:17.201Z,99014.59
2022-10-10T00:41:45.342Z,99007.03
2022-10-10T00:44:21.766Z,99006.53
2022-10-10T00:46:49.761Z,99008.47
2022-10-10T00:49:20.527Z,99007.09
2022-10-10T00:51:52.162Z,98999.50
2022-10-10T00:54:40.700Z,98997.34
2022-10-10T01:00:40.720Z,98994.19
2022-10-10T01:03:14.225Z,98993.91
2022-10-10T01:05:44.364Z,98989.56
2022-10-10T01:08:14.571Z,98989.34
2022-10-10T01:10:53.990Z,98989.84
2022-10-10T01:13:29.354Z,98989.88
2022-10-10T01:16:23.946Z,98989.94
2022-10-10T01:19:01.274Z,98990.44
2022-10-10T01:21:36.552Z,98990.09
2022-10-10T01:24:29.998Z,98981.78
2022-10-10T01:27:19.155Z,98975.00
2022-10-10T01:29:53.225Z,98972.06
2022-10-10T01:32:29.560Z,98972.53
2022-10-10T01:35:07.965Z,98965.59
2022-10-10T01:37:43.127Z,98968.50
2022-10-10T01:40:18.902Z,98963.38
2022-10-10T01:42:52.129Z,98963.13
2022-10-10T01:45:50.270Z,98963.38
2022-10-10T01:48:40.291Z,98956.00
2022-10-10T01:51:42.063Z,98960.38
2022-10-10T01:54:21.250Z,98957.38
2022-10-10T01:57:01.123Z,98950.09
2022-10-10T01:59:40.369Z,98948.56
2022-10-10T02:02:19.080Z,98950.75
2022-10-10T02:04:50.917Z,98950.53
2022-10-10T02:07:25.047Z,98943.00
2022-10-10T02:09:54.971Z,98942.47
2022-10-10T02:12:24.320Z,98935.44
2022-10-10T02:14:56.385Z,98941.16
2022-10-10T02:17:27.805Z,98941.91
2022-10-10T02:19:58.257Z,98941.91
2022-10-10T02:22:29.210Z,98942.50
2022-10-10T02:24:57.438Z,98940.63
2022-10-10T02:27:33.476Z,98938.75
2022-10-10T02:30:05.209Z,98937.34
2022-10-10T02:32:40.337Z,98938.22
2022-10-10T02:35:11.384Z,98934.34
2022-10-10T02:37:42.535Z,98926.25
2022-10-10T02:40:27.499Z,98925.97
2022-10-10T02:42:58.299Z,98931.06
2022-10-10T02:45:28.608Z,98926.22
2022-10-10T02:48:04.390Z,98916.59
2022-10-10T02:50:47.073Z,98925.22
2022-10-10T02:53:15.089Z,98928.94
2022-10-10T02:55:42.915Z,98924.38
2022-10-10T02:58:10.779Z,98924.13
2022-10-10T03:00:42.033Z,98916.56
2022-10-10T03:03:40.538Z,98919.09
2022-10-10T03:06:09.957Z,98912.88
2022-10-10T03:08:38.918Z,98906.94
2022-10-10T03:11:07.265Z,98901.06
2022-10-10T03:13:42.658Z,98901.09
2022-10-10T03:16:45.050Z,98903.22
2022-10-10T03:19:13.011Z,98896.78
2022-10-10T03:21:42.144Z,98903.19
2022-10-10T03:24:44.485Z,98898.31
2022-10-10T03:27:46.832Z,98891.59
2022-10-10T03:30:41.842Z,98891.38
2022-10-10T03:33:10.481Z,98895.72
2022-10-10T03:35:41.970Z,98879.59
2022-10-10T03:38:12.333Z,98885.47
2022-10-10T03:40:41.833Z,98880.63
2022-10-10T03:43:10.283Z,98882.81
2022-10-10T03:45:52.781Z,98882.81
2022-10-10T03:48:31.241Z,98886.06
2022-10-10T03:51:40.937Z,98890.38
2022-10-10T03:54:10.349Z,98877.44
2022-10-10T03:56:42.641Z,98883.63
2022-10-10T03:59:10.753Z,98879.03
2022-10-10T04:01:49.305Z,98882.25
2022-10-10T04:07:42.489Z,98873.63
2022-10-10T04:10:11.970Z,98886.56
2022-10-10T04:12:41.485Z,98878.81
2022-10-10T04:15:10.384Z,98874.81
2022-10-10T04:17:41.602Z,98882.63
2022-10-10T04:20:10.081Z,98874.81
2022-10-10T04:22:37.850Z,98885.59
2022-10-10T04:28:24.236Z,98883.97
2022-10-10T04:30:52.689Z,98881.25
2022-10-10T04:33:20.398Z,98882.31
2022-10-10T04:35:50.066Z,98879.38
2022-10-10T04:39:12.920Z,98878.81
2022-10-10T04:41:57.098Z,98882.31
2022-10-10T04:44:28.423Z,98872.38
2022-10-10T04:46:56.295Z,98874.25
2022-10-10T04:49:24.134Z,98872.38
2022-10-10T04:51:52.231Z,98873.22
2022-10-10T04:54:19.997Z,98876.47
2022-10-10T04:56:47.906Z,98879.72
2022-10-10T04:59:15.770Z,98872.19
2022-10-10T05:01:45.011Z,98875.94
2022-10-10T05:04:13.096Z,98877.03
2022-10-10T05:06:41.177Z,98864.13
2022-10-10T05:09:09.106Z,98869.78
2022-10-10T05:11:37.095Z,98865.72
2022-10-10T05:14:05.268Z,98861.97
2022-10-10T05:16:33.181Z,98866.28
2022-10-10T05:19:02.369Z,98854.44
2022-10-10T05:21:31.638Z,98853.09
2022-10-10T05:23:59.353Z,98856.59
2022-10-10T05:26:27.821Z,98861.16
2022-10-10T05:28:55.696Z,98862.75
2022-10-10T05:31:23.692Z,98870.56
2022-10-10T05:33:51.438Z,98866.25
2022-10-10T05:36:20.832Z,98871.09
2022-10-10T05:38:48.529Z,98877.03
2022-10-10T05:41:16.400Z,98875.38
2022-10-10T05:43:44.614Z,98869.47
2022-10-10T05:46:12.611Z,98869.66
2022-10-10T05:48:40.817Z,98876.63
2022-10-10T05:51:08.820Z,98884.41
2022-10-10T05:53:37.876Z,98886.56
2022-10-10T05:56:06.198Z,98888.03
2022-10-10T05:58:34.102Z,98886.19
2022-10-10T06:01:05.510Z,98887.25
2022-10-10T06:03:33.830Z,98885.91
2022-10-10T06:06:02.229Z,98888.59
2022-10-10T06:08:31.153Z,98878.63
2022-10-10T06:11:05.234Z,98878.88
2022-10-10T06:13:33.569Z,98886.72
2022-10-10T06:16:01.465Z,98884.81
2022-10-10T06:18:29.230Z,98888.84
2022-10-10T06:21:02.417Z,98891.50
2022-10-10T06:23:30.159Z,98900.34
2022-10-10T06:25:58.490Z,98896.81
2022-10-10T06:28:27.682Z,98892.44
2022-10-10T06:30:55.646Z,98890.25
2022-10-10T06:33:23.840Z,98886.75
2022-10-10T06:35:51.713Z,98888.69
2022-10-10T06:38:19.436Z,98891.28
2022-10-10T06:40:47.973Z,98889.66
2022-10-10T06:43:17.293Z,98873.75
2022-10-10T06:45:50.666Z,98879.91
2022-10-10T06:48:18.477Z,98871.31
2022-10-10T06:50:56.926Z,98872.88
2022-10-10T06:53:24.735Z,98876.56
2022-10-10T06:55:53.833Z,98874.66
2022-10-10T06:58:21.981Z,98873.69
2022-10-10T07:00:53.025Z,98876.31
2022-10-10T07:03:21.712Z,98877.81
2022-10-10T07:05:52.225Z,98875.06
2022-10-10T07:08:20.699Z,98879.63
2022-10-10T07:10:48.931Z,98877.56
2022-10-10T07:13:17.193Z,98867.81
2022-10-10T07:15:45.360Z,98883.84
2022-10-10T07:18:15.121Z,98881.00
2022-10-10T07:20:43.058Z,98872.97
2022-10-10T07:23:11.173Z,98873.59
2022-10-10T07:25:40.303Z,98861.53
2022-10-10T07:28:09.030Z,98876.38
2022-10-10T07:30:40.933Z,98873.25
2022-10-10T07:33:08.715Z,98871.13
2022-10-10T07:35:37.975Z,98878.44
2022-10-10T07:38:06.456Z,98874.91
2022-10-10T07:40:34.469Z,98870.00
2022-10-10T07:43:02.160Z,98871.03
2022-10-10T07:45:30.149Z,98878.78
2022-10-10T07:47:58.106Z,98883.22
2022-10-10T07:50:26.024Z,98878.09
2022-10-10T07:52:55.242Z,98870.16
2022-10-10T07:55:23.126Z,98867.84
2022-10-10T07:57:53.414Z,98873.63
2022-10-10T08:00:21.986Z,98878.81
2022-10-10T08:02:50.803Z,98877.78
2022-10-10T08:05:18.807Z,98874.38
2022-10-10T08:07:47.146Z,98876.38
2022-10-10T08:10:17.417Z,98872.31
2022-10-10T08:12:45.385Z,98874.09
2022-10-10T08:15:13.947Z,98865.28
2022-10-10T08:17:41.831Z,98864.91
2022-10-10T08:20:10.526Z,98875.31
2022-10-10T08:22:38.381Z,98864.38
2022-10-10T08:25:07.378Z,98862.72
2022-10-10T08:27:36.527Z,98852.34
2022-10-10T08:30:05.335Z,98857.59
2022-10-10T08:32:33.119Z,98846.69
2022-10-10T08:35:00.994Z,98848.47
2022-10-10T08:37:32.777Z,98842.09
2022-10-10T08:40:04.999Z,98843.16
2022-10-10T08:42:45.586Z,98835.94
2022-10-10T08:45:19.005Z,98838.31
2022-10-10T08:47:52.182Z,98832.06
2022-10-10T08:50:24.916Z,98838.22
2022-10-10T08:52:58.004Z,98829.63
2022-10-10T08:55:33.380Z,98831.91
2022-10-10T08:58:08.569Z,98825.06
2022-10-10T09:00:41.337Z,98821.50
2022-10-10T09:03:20.862Z,98822.72
2022-10-10T09:06:02.920Z,98823.41
2022-10-10T09:08:41.822Z,98815.66
2022-10-10T09:11:18.073Z,98812.97
2022-10-10T09:13:59.262Z,98812.41
2022-10-10T09:16:37.829Z,98813.84
2022-10-10T09:19:17.501Z,98811.47
2022-10-10T09:21:47.255Z,98803.72
2022-10-10T09:24:20.918Z,98801.09
2022-10-10T09:26:52.177Z,98802.19
2022-10-10T09:29:30.010Z,98801.75
2022-10-10T09:32:02.422Z,98800.97
2022-10-10T09:34:35.167Z,98801.75
2022-10-10T09:37:04.686Z,98799.06
2022-10-10T09:39:39.602Z,98795.25
2022-10-10T09:42:13.033Z,98799.03
2022-10-10T09:44:43.510Z,98790.34
2022-10-10T09:47:14.855Z,98792.88
2022-10-10T09:49:42.949Z,98791.69
2022-10-10T09:52:24.260Z,98790.19
2022-10-10T09:54:56.290Z,98789.59
2022-10-10T09:57:26.873Z,98786.59
2022-10-10T09:59:56.125Z,98787.00
2022-10-10T10:02:26.201Z,98776.16
2022-10-10T10:04:54.733Z,98781.00
2022-10-10T10:07:27.559Z,98777.09
2022-10-10T10:09:59.164Z,98773.69
2022-10-10T10:12:30.174Z,98773.53
2022-10-10T10:15:04.333Z,98776.97
2022-10-10T10:17:32.866Z,98774.16
2022-10-10T10:20:00.545Z,98767.53
2022-10-10T10:22:34.772Z,98766.91
2022-10-10T10:25:32.533Z,98757.97
2022-10-10T10:28:20.726Z,98764.75
2022-10-10T10:30:53.414Z,98759.47
2022-10-10T10:33:37.635Z,98756.41
2022-10-10T10:36:14.243Z,98756.03
2022-10-10T10:38:45.719Z,98751.91
2022-10-10T10:41:24.313Z,98744.94
2022-10-10T10:44:06.437Z,98742.63
2022-10-10T10:46:45.276Z,98735.69
2022-10-10T10:49:18.759Z,98735.31
2022-10-10T10:52:08.533Z,98723.00
2022-10-10T10:54:50.078Z,98727.81
2022-10-10T10:57:37.108Z,98721.88
2022-10-10T11:00:21.727Z,98721.06
2022-10-10T11:03:34.954Z,98719.09
2022-10-10T11:06:13.093Z,98709.50
2022-10-10T11:08:53.153Z,98709.47
2022-10-10T11:11:34.461Z,98717.69
2022-10-10T11:14:10.601Z,98710.16
2022-10-10T11:16:48.530Z,98708.19
2022-10-10T11:19:29.081Z,98705.06
2022-10-10T11:22:04.220Z,98702.91
2022-10-10T11:24:42.294Z,98700.91
2022-10-10T11:27:16.932Z,98696.22
2022-10-10T11:30:01.162Z,98686.91
2022-10-10T11:32:33.534Z,98685.38
2022-10-10T11:35:13.336Z,98684.94
2022-10-10T11:37:47.291Z,98680.16
2022-10-10T11:40:33.700Z,98686.09
2022-10-10T11:43:06.219Z,98681.56
2022-10-10T11:45:39.002Z,98670.47
2022-10-10T11:48:18.981Z,98671.28
2022-10-10T11:50:54.005Z,98665.75
2022-10-10T11:53:27.888Z,98664.78
2022-10-10T11:56:00.070Z,98652.97
2022-10-10T11:58:34.275Z,98653.94
2022-10-10T12:01:06.994Z,98648.31
2022-10-10T12:03:35.213Z,98653.22
2022-10-10T12:06:13.379Z,98639.63
2022-10-10T12:08:47.605Z,98641.28
2022-10-10T12:11:20.674Z,98645.31
2022-10-10T12:13:54.273Z,98640.56
2022-10-10T12:16:29.567Z,98641.53
2022-10-10T12:19:03.273Z,98642.88
2022-10-10T12:21:50.929Z,98639.91
2022-10-10T12:24:19.394Z,98616.59
2022-10-10T12:27:27.470Z,98623.00
2022-10-10T12:30:19.454Z,98614.69
2022-10-10T12:32:50.117Z,98608.38
2022-10-10T12:35:42.280Z,98613.50
2022-10-10T12:38:21.550Z,98604.41
2022-10-10T12:41:14.528Z,98602.81
2022-10-10T12:44:13.201Z,98599.66
2022-10-10T12:46:43.672Z,98602.00
2022-10-10T12:49:22.509Z,98592.91
2022-10-10T12:52:02.252Z,98585.38
2022-10-10T12:54:33.123Z,98586.16
2022-10-10T12:57:10.505Z,98575.13
2022-10-10T12:59:39.700Z,98581.47
2022-10-10T13:02:17.568Z,98573.16
2022-10-10T13:04:47.569Z,98571.94
2022-10-10T13:07:18.959Z,98569.47
2022-10-10T13:09:49.378Z,98564.66
2022-10-10T13:12:28.305Z,98566.97
2022-10-10T13:14:57.423Z,98564.22
2022-10-10T13:17:29.467Z,98560.66
2022-10-10T13:19:58.790Z,98544.06
2022-10-10T13:22:28.358Z,98551.47
2022-10-10T13:24:56.689Z,98554.19
2022-10-10T13:27:28.129Z,98547.13
2022-10-10T13:29:56.960Z,98554.97
2022-10-10T13:32:29.243Z,98544.63
2022-10-10T13:35:00.242Z,98537.56
2022-10-10T13:37:29.396Z,98545.38
2022-10-10T13:39:57.873Z,98538.56
2022-10-10T13:42:33.509Z,98536.75
2022-10-10T13:45:03.238Z,98539.84
2022-10-10T13:47:51.448Z,98534.22
2022-10-10T13:50:26.669Z,98530.25
2022-10-10T13:53:24.057Z,98529.56
2022-10-10T13:55:58.804Z,98528.66
2022-10-10T13:58:27.679Z,98530.59
2022-10-10T14:00:57.305Z,98526.28
2022-10-10T14:03:27.606Z,98526.59
2022-10-10T14:05:55.600Z,98511.25
2022-10-10T14:08:28.262Z,98514.34
2022-10-10T14:10:58.298Z,98498.53
2022-10-10T14:13:26.376Z,98502.03
2022-10-10T14:15:54.481Z,98495.22
2022-10-10T14:18:24.574Z,98497.69
2022-10-10T14:20:55.567Z,98488.16
2022-10-10T14:23:23.749Z,98497.91
2022-10-10T14:25:51.613Z,98492.75
2022-10-10T14:28:22.556Z,98493.97
2022-10-10T14:30:50.569Z,98493.56
2022-10-10T14:33:20.332Z,98492.44
2022-10-10T14:35:51.665Z,98490.59
2022-10-10T14:38:21.165Z,98487.34
2022-10-10T14:40:50.696Z,98489.38
2022-10-10T14:43:22.574Z,98484.31
2022-10-10T14:45:51.722Z,98481.16
2022-10-10T14:48:20.406Z,98481.09
2022-10-10T14:50:49.465Z,98481.91
2022-10-10T14:53:18.004Z,98478.75
2022-10-10T14:55:47.657Z,98484.25
2022-10-10T14:58:18.739Z,98474.78
2022-10-10T15:00:47.252Z,98479.50
2022-10-10T15:03:15.730Z,98481.56
2022-10-10T15:05:43.714Z,98481.91
2022-10-10T15:08:14.186Z,98479.63
2022-10-10T15:10:42.425Z,98469.41
2022-10-10T15:13:12.500Z,98469.41
2022-10-10T15:15:41.009Z,98471.44
2022-10-10T15:18:25.607Z,98469.50
2022-10-10T15:20:57.773Z,98479.06
2022-10-10T15:23:26.952Z,98468.81
2022-10-10T15:25:54.763Z,98475.78
2022-10-10T15:28:24.358Z,98471.69
2022-10-10T15:30:52.694Z,98466.78
2022-10-10T15:33:20.381Z,98460.31
2022-10-10T15:36:09.101Z,98463.63
2022-10-10T15:38:37.850Z,98456.31
2022-10-10T15:41:08.918Z,98451.03
2022-10-10T15:43:45.130Z,98469.03
2022-10-10T15:46:13.589Z,98468.06
2022-10-10T15:48:41.327Z,98465.16
2022-10-10T15:51:09.644Z,98457.53
2022-10-10T15:53:38.144Z,98461.97
2022-10-10T15:56:10.105Z,98460.97
2022-10-10T15:58:41.144Z,98462.84
2022-10-10T16:01:13.568Z,98463.00
2022-10-10T16:03:41.937Z,98458.72
2022-10-10T16:06:10.305Z,98454.63
2022-10-10T16:08:38.974Z,98461.53
2022-10-10T16:11:08.189Z,98463.00
2022-10-10T16:13:37.128Z,98455.09
2022-10-10T16:16:08.818Z,98446.19
2022-10-10T16:18:40.304Z,98450.47
2022-10-10T16:21:10.521Z,98441.75
2022-10-10T16:23:38.797Z,98441.16
2022-10-10T16:26:08.831Z,98444.25
2022-10-10T16:28:36.922Z,98437.19
2022-10-10T16:31:09.010Z,98441.06
2022-10-10T16:33:39.185Z,98439.38
2022-10-10T16:36:09.977Z,98435.75
2022-10-10T16:38:38.322Z,98429.91
2022-10-10T16:41:19.663Z,98439.06
2022-10-10T16:43:56.852Z,98436.59
2022-10-10T16:46:27.726Z,98433.19
2022-10-10T16:48:58.140Z,98445.72
2022-10-10T16:51:28.391Z,98443.59
2022-10-10T16:53:56.449Z,98447.03
2022-10-10T16:56:24.348Z,98441.78
2022-10-10T16:58:52.438Z,98446.03
2022-10-10T17:01:22.293Z,98431.03
2022-10-10T17:03:52.587Z,98434.22
2022-10-10T17:06:23.289Z,98437.16
2022-10-10T17:08:52.844Z,98438.19
2022-10-10T17:11:22.826Z,98441.66
2022-10-10T17:13:51.816Z,98444.50
2022-10-10T17:16:59.713Z,98448.84
2022-10-10T17:19:11.641Z,98440.06
2022-10-10T17:21:39.721Z,98445.00
2022-10-10T17:24:07.846Z,98432.75
2022-10-10T17:26:35.870Z,98436.38
2022-10-10T17:29:03.767Z,98435.91
2022-10-10T17:31:31.511Z,98434.09
2022-10-10T17:33:59.565Z,98427.03
2022-10-10T17:36:29.474Z,98432.16
2022-10-10T17:39:00.075Z,98430.72
2022-10-10T17:41:29.627Z,98431.50
2022-10-10T17:43:57.445Z,98425.09
2022-10-10T17:46:36.327Z,98425.97
2022-10-10T17:49:06.665Z,98419.38
2022-10-10T17:51:37.030Z,98413.94
2022-10-10T17:54:06.305Z,98423.25
2022-10-10T17:56:35.221Z,98421.84
2022-10-10T17:59:06.166Z,98420.94
2022-10-10T18:01:35.060Z,98417.41
2022-10-10T18:04:03.352Z,98415.03
2022-10-10T18:06:31.881Z,98416.16
2022-10-10T18:09:01.390Z,98412.28
2022-10-10T18:11:31.731Z,98400.47
2022-10-10T18:14:01.241Z,98408.09
2022-10-10T18:16:32.397Z,98418.66
2022-10-10T18:19:00.986Z,98410.28
2022-10-10T18:21:29.123Z,98405.72
2022-10-10T18:23:57.624Z,98402.78
2022-10-10T18:26:30.062Z,98408.22
2022-10-10T18:28:58.514Z,98398.13
2022-10-10T18:31:28.302Z,98400.31
2022-10-10T18:33:56.934Z,98400.69
2022-10-10T18:36:27.073Z,98392.22
2022-10-10T18:38:55.101Z,98398.19
2022-10-10T18:41:25.154Z,98393.16
2022-10-10T18:43:56.968Z,98393.81
2022-10-10T18:46:25.649Z,98389.09
2022-10-10T18:48:54.365Z,98386.25
2022-10-10T18:51:25.133Z,98387.66
2022-10-10T18:53:56.876Z,98384.13
2022-10-10T18:56:25.209Z,98387.16
2022-10-10T18:58:57.566Z,98378.00
2022-10-10T19:01:28.138Z,98379.53
2022-10-10T19:03:56.419Z,98377.50
2022-10-10T19:06:25.644Z,98370.75
2022-10-10T19:08:56.334Z,98373.38
2022-10-10T19:11:27.450Z,98373.78
2022-10-10T19:13:57.337Z,98370.25
2022-10-10T19:16:25.218Z,98375.22
2022-10-10T19:18:57.536Z,98377.28
2022-10-10T19:21:27.468Z,98356.22
2022-10-10T19:23:55.275Z,98381.13
2022-10-10T19:26:23.455Z,98365.16
2022-10-10T19:28:51.877Z,98381.91
2022-10-10T19:31:22.502Z,98379.94
2022-10-10T19:33:53.142Z,98373.13
2022-10-10T19:36:21.366Z,98368.78
2022-10-10T19:38:49.290Z,98368.28
2022-10-10T19:41:17.709Z,98371.97
2022-10-10T19:43:48.826Z,98354.50
2022-10-10T19:46:18.314Z,98378.81
2022-10-10T19:48:47.886Z,98379.16
2022-10-10T19:51:16.956Z,98386.72
2022-10-10T19:53:46.140Z,98377.13
2022-10-10T19:56:16.454Z,98376.97
2022-10-10T19:58:44.464Z,98382.88
2022-10-10T20:01:14.839Z,98385.28
2022-10-10T20:03:43.843Z,98392.47
2022-10-10T20:06:13.235Z,98394.06
2022-10-10T20:08:41.987Z,98395.56
2022-10-10T20:11:10.459Z,98390.91
2022-10-10T20:13:38.178Z,98391.69
2022-10-10T20:16:09.272Z,98392.50
2022-10-10T20:18:39.709Z,98385.00
2022-10-10T20:21:15.560Z,98391.63
2022-10-10T20:23:46.643Z,98376.66
2022-10-10T20:26:16.360Z,98387.53
2022-10-10T20:28:45.310Z,98384.50
2022-10-10T20:31:19.868Z,98377.69
2022-10-10T20:33:48.055Z,98389.84
2022-10-10T20:36:16.842Z,98383.13
2022-10-10T20:38:46.406Z,98384.22
2022-10-10T20:41:14.294Z,98383.59
2022-10-10T20:43:42.451Z,98381.38
2022-10-10T20:46:12.868Z,98382.81
2022-10-10T20:48:41.194Z,98395.56
2022-10-10T20:51:12.292Z,98397.81
2022-10-10T20:53:42.355Z,98402.13
2022-10-10T20:56:13.466Z,98392.03
2022-10-10T20:58:41.822Z,98395.09
2022-10-10T21:01:11.549Z,98399.06
2022-10-10T21:03:41.240Z,98392.00
2022-10-10T21:06:11.318Z,98382.72
2022-10-10T21:08:39.436Z,98393.44
2022-10-10T21:11:08.789Z,98392.66
2022-10-10T21:13:40.242Z,98385.31
2022-10-10T21:16:10.742Z,98390.91
2022-10-10T21:18:38.704Z,98396.19
2022-10-10T21:21:08.328Z,98391.84
2022-10-10T21:23:38.400Z,98393.63
2022-10-10T21:26:07.186Z,98392.38
2022-10-10T21:28:36.329Z,98394.63
2022-10-10T21:31:06.326Z,98384.53
2022-10-10T21:33:35.310Z,98398.47
2022-10-10T21:36:03.371Z,98386.94
2022-10-10T21:38:31.535Z,98390.63
2022-10-10T21:41:06.544Z,98402.78
2022-10-10T21:43:35.218Z,98395.28
2022-10-10T21:46:05.878Z,98399.88
2022-10-10T21:48:33.968Z,98400.84
2022-10-10T21:51:02.828Z,98393.66
2022-10-10T21:53:30.805Z,98389.03
2022-10-10T21:55:58.907Z,98397.81
2022-10-10T21:58:27.257Z,98408.38
2022-10-10T22:00:55.055Z,98396.38
2022-10-10T22:03:24.104Z,98407.09
2022-10-10T22:05:52.074Z,98404.06
2022-10-10T22:08:19.772Z,98405.34
2022-10-10T22:10:48.873Z,98404.22
2022-10-10T22:13:16.918Z,98401.66
2022-10-10T22:15:44.745Z,98399.09
2022-10-10T22:18:12.666Z,98403.91
2022-10-10T22:20:41.979Z,98403.91
2022-10-10T22:23:09.750Z,98403.13
2022-10-10T22:25:37.565Z,98403.41
2022-10-10T22:28:06.491Z,98404.06
2022-10-10T22:30:34.313Z,98404.69
2022-10-10T22:33:02.093Z,98402.31
2022-10-10T22:35:30.424Z,98404.69
2022-10-10T22:37:59.477Z,98405.66
2022-10-10T22:40:27.467Z,98400.84
2022-10-10T22:42:55.442Z,98395.13
2022-10-10T22:45:23.763Z,98407.38
2022-10-10T22:47:51.995Z,98401.34
2022-10-10T22:50:20.130Z,98408.69
2022-10-10T22:52:48.239Z,98405.50
2022-10-10T22:55:18.933Z,98394.31
2022-10-10T22:57:47.093Z,98400.88
2022-10-10T23:00:16.516Z,98400.06
2022-10-10T23:02:44.799Z,98413.16
2022-10-10T23:05:13.250Z,98408.06
2022-10-10T23:07:41.188Z,98413.47
2022-10-10T23:10:10.078Z,98409.16
2022-10-10T23:12:39.436Z,98413.50
2022-10-10T23:15:08.222Z,98413.16
2022-10-10T23:17:36.149Z,98414.13
2022-10-10T23:20:04.586Z,98417.94
2022-10-10T23:22:32.539Z,98416.66
2022-10-10T23:25:00.463Z,98411.56
2022-10-10T23:27:28.473Z,98410.13
2022-10-10T23:29:57.829Z,98420.34
2022-10-10T23:32:29.387Z,98414.44
2022-10-10T23:34:57.873Z,98416.34
2022-10-10T23:37:27.618Z,98413.94
2022-10-10T23:39:55.381Z,98417.59
2022-10-10T23:42:23.828Z,98414.41
2022-10-10T23:44:51.591Z,98421.59
2022-10-10T23:47:20.642Z,98418.72
2022-10-10T23:49:48.645Z,98428.13
2022-10-10T23:52:16.808Z,98425.44
2022-10-10T23:54:44.686Z,98421.59
2022-10-10T23:57:12.713Z,98418.88
2022-10-10T23:59:40.430Z,98424.16
